Time;durP1;ratioP1;P1;durP2;ratioP2;P2;SDS_P1;SDS_P2;PMS_P1;PMS_P2;Temp;Humidity;BMP_temperature;BMP_pressure;BME280_temperature;BME280_humidity;BME280_pressure;Samples;Min_cycle;Max_cycle;Signal;HPM_P1;HPM_P2
2023/06/23 04:01:30;;;;;;;3.60;1.90;;;16.00;99.90;;;;;;5528773;22;21047;-69
2023/06/23 04:03:58;;;;;;;2.13;2.13;;;16.00;99.90;;;;;;4988476;28;20467;-69
2023/06/23 04:06:27;;;;;;;1.73;1.70;;;16.00;99.90;;;;;;4992317;28;20462;-69
2023/06/23 04:08:56;;;;;;;1.90;1.80;;;16.00;99.90;;;;;;4992156;28;20494;-69
2023/06/23 04:11:23;;;;;;;1.83;1.73;;;16.00;99.90;;;;;;4999747;28;20501;-67
2023/06/23 04:13:51;;;;;;;2.70;2.50;;;16.10;99.90;;;;;;5004561;28;20458;-68
2023/06/23 04:16:19;;;;;;;3.23;2.97;;;16.00;99.90;;;;;;5000252;28;20467;-68
2023/06/23 04:18:51;;;;;;;2.20;2.10;;;16.00;99.90;;;;;;5019454;23;20470;-67
2023/06/23 04:21:19;;;;;;;3.13;2.90;;;15.90;99.90;;;;;;4973423;28;20480;-66
2023/06/23 04:23:48;;;;;;;3.10;2.90;;;15.90;99.90;;;;;;4980017;28;20464;-66
2023/06/23 04:26:16;;;;;;;2.70;2.50;;;15.90;99.90;;;;;;4982628;28;20463;-68
2023/06/23 04:28:44;;;;;;;4.33;4.03;;;15.90;99.90;;;;;;4980242;28;20484;-67
2023/06/23 04:31:13;;;;;;;2.90;2.77;;;15.90;99.90;;;;;;4968771;28;20479;-67
2023/06/23 04:33:40;;;;;;;3.43;3.23;;;15.90;99.90;;;;;;4972705;28;20460;-67
2023/06/23 04:36:13;;;;;;;6.27;2.20;;;15.90;99.90;;;;;;4972519;28;21142;-67
2023/06/23 04:38:45;;;;;;;2.70;2.50;;;15.90;99.90;;;;;;4972839;28;20463;-67
2023/06/23 04:41:18;;;;;;;1.70;1.60;;;15.90;99.90;;;;;;4971802;28;20468;-66
2023/06/23 04:43:50;;;;;;;3.40;3.20;;;16.00;99.90;;;;;;4970813;28;20484;-67
2023/06/23 04:46:23;;;;;;;5.13;4.70;;;16.00;99.90;;;;;;4969013;28;20535;-67
2023/06/23 04:48:54;;;;;;;4.30;4.07;;;16.00;99.90;;;;;;4973076;28;20865;-66
2023/06/23 04:51:26;;;;;;;4.00;3.80;;;16.10;99.90;;;;;;4971102;28;20463;-66
2023/06/23 04:53:57;;;;;;;3.10;3.00;;;16.00;99.90;;;;;;4971306;28;20901;-66
2023/06/23 04:56:31;;;;;;;3.47;3.10;;;16.10;99.90;;;;;;4971051;28;20972;-67
2023/06/23 04:59:00;;;;;;;3.33;3.10;;;16.10;99.90;;;;;;4971228;28;20611;-66
2023/06/23 05:01:28;;;;;;;2.60;2.50;;;16.20;99.90;;;;;;4968476;28;20819;-66
2023/06/23 05:03:58;;;;;;;3.00;2.67;;;16.20;99.90;;;;;;4971035;28;20475;-66
2023/06/23 05:06:28;;;;;;;2.50;2.40;;;16.20;99.90;;;;;;4971631;28;20490;-67
2023/06/23 05:08:56;;;;;;;3.70;3.60;;;16.20;99.90;;;;;;4971189;28;20868;-65
2023/06/23 05:11:23;;;;;;;3.90;3.20;;;16.20;99.90;;;;;;4970715;28;20476;-68
2023/06/23 05:13:52;;;;;;;3.33;3.07;;;16.10;99.90;;;;;;4970577;28;20472;-66
2023/06/23 05:16:19;;;;;;;7.00;3.07;;;16.20;99.90;;;;;;4970454;28;20474;-66
2023/06/23 05:18:47;;;;;;;4.27;3.97;;;16.20;99.90;;;;;;4970521;28;20464;-65
2023/06/23 05:21:17;;;;;;;2.33;2.23;;;16.20;99.90;;;;;;4971073;28;20478;-67
2023/06/23 05:23:48;;;;;;;4.00;3.80;;;16.20;99.90;;;;;;4970582;28;20983;-67
2023/06/23 05:26:16;;;;;;;2.90;2.80;;;16.20;99.90;;;;;;4965465;28;20578;-67
2023/06/23 05:28:44;;;;;;;3.07;2.87;;;16.20;99.90;;;;;;4969275;28;20487;-67
2023/06/23 05:31:12;;;;;;;2.17;2.07;;;16.20;99.90;;;;;;4970843;28;20997;-68
2023/06/23 05:33:40;;;;;;;2.57;2.47;;;16.20;99.90;;;;;;4968066;28;20483;-67
2023/06/23 05:36:11;;;;;;;3.10;2.87;;;16.20;99.90;;;;;;4966284;28;20475;-68
2023/06/23 05:38:39;;;;;;;2.03;1.83;;;16.20;99.90;;;;;;4971182;28;20464;-67
2023/06/23 05:41:08;;;;;;;2.77;2.63;;;16.20;99.90;;;;;;4970776;28;20472;-67
2023/06/23 05:43:34;;;;;;;3.43;3.23;;;16.30;99.90;;;;;;4970413;28;20468;-67
2023/06/23 05:46:07;;;;;;;2.93;2.83;;;16.30;99.90;;;;;;4970979;28;20490;-67
2023/06/23 05:48:40;;;;;;;2.47;2.37;;;16.40;99.90;;;;;;4969618;28;20542;-66
2023/06/23 05:51:11;;;;;;;3.13;3.03;;;16.40;99.90;;;;;;4968868;28;20917;-68
2023/06/23 05:53:40;;;;;;;4.23;3.93;;;16.40;99.90;;;;;;4969318;28;20539;-67
2023/06/23 05:56:15;;;;;;;2.60;2.40;;;16.50;99.90;;;;;;4969149;28;20838;-67
2023/06/23 05:58:45;;;;;;;2.50;2.40;;;16.40;99.90;;;;;;4965071;28;20468;-67
2023/06/23 06:01:15;;;;;;;4.03;3.73;;;16.40;99.90;;;;;;4964298;28;20776;-67
2023/06/23 06:03:46;;;;;;;3.10;2.90;;;16.50;99.90;;;;;;4964597;28;20460;-67
2023/06/23 06:06:13;;;;;;;3.17;3.07;;;16.60;99.90;;;;;;4969403;28;20467;-67
2023/06/23 06:08:41;;;;;;;5.20;3.40;;;16.60;99.90;;;;;;4969594;28;20486;-67
2023/06/23 06:11:11;;;;;;;4.23;2.93;;;16.60;99.90;;;;;;4970309;28;20982;-67
2023/06/23 06:13:47;;;;;;;5.17;3.20;;;16.60;99.90;;;;;;4970235;28;20468;-67
2023/06/23 06:16:15;;;;;;;3.23;2.80;;;16.70;99.90;;;;;;4969713;28;20502;-67
2023/06/23 06:18:44;;;;;;;2.67;2.57;;;16.70;99.90;;;;;;4970613;28;21009;-67
2023/06/23 06:21:11;;;;;;;2.20;1.80;;;16.70;99.90;;;;;;4969426;28;20471;-67
2023/06/23 06:23:39;;;;;;;2.60;2.50;;;16.80;99.90;;;;;;4969988;28;20490;-67
2023/06/23 06:26:10;;;;;;;2.20;2.10;;;16.80;99.90;;;;;;4966000;28;20467;-67
2023/06/23 06:28:39;;;;;;;3.07;2.87;;;16.80;99.90;;;;;;4969905;28;20522;-67
2023/06/23 06:31:08;;;;;;;2.80;2.60;;;16.80;99.90;;;;;;4968769;28;20478;-66
2023/06/23 06:33:38;;;;;;;4.37;4.00;;;16.90;99.90;;;;;;4968644;28;20486;-67
2023/06/23 06:36:08;;;;;;;2.30;2.20;;;17.00;99.90;;;;;;4970472;28;20468;-67
2023/06/23 06:38:36;;;;;;;3.03;2.03;;;17.00;99.90;;;;;;4967960;28;20840;-67
2023/06/23 06:41:05;;;;;;;2.37;2.30;;;17.00;99.90;;;;;;4970228;28;20567;-67
2023/06/23 06:43:33;;;;;;;3.93;3.73;;;17.00;99.90;;;;;;4968816;28;20472;-67
2023/06/23 06:46:01;;;;;;;3.50;3.30;;;17.10;99.90;;;;;;4969328;28;20479;-67
2023/06/23 06:48:28;;;;;;;2.73;2.70;;;17.20;99.90;;;;;;4970745;28;20475;-69
2023/06/23 06:50:56;;;;;;;2.50;2.40;;;17.20;99.90;;;;;;4969569;28;21003;-68
2023/06/23 06:53:25;;;;;;;6.70;3.40;;;17.20;99.90;;;;;;4969332;28;20480;-67
2023/06/23 06:55:52;;;;;;;3.10;2.83;;;17.20;99.90;;;;;;4969147;28;20838;-68
2023/06/23 06:58:19;;;;;;;2.43;2.37;;;17.20;99.90;;;;;;4966133;28;20499;-67
2023/06/23 07:00:48;;;;;;;2.43;2.27;;;17.30;99.90;;;;;;4963041;28;20494;-67
2023/06/23 07:03:16;;;;;;;3.93;2.40;;;17.30;99.90;;;;;;4966356;28;20479;-67
2023/06/23 07:05:43;;;;;;;2.90;2.70;;;17.40;99.90;;;;;;4971999;28;21001;-67
2023/06/23 07:08:10;;;;;;;2.40;2.30;;;17.50;99.90;;;;;;4973085;28;20509;-67
2023/06/23 07:10:38;;;;;;;3.03;2.77;;;17.50;99.90;;;;;;4974237;28;20487;-67
2023/06/23 07:13:05;;;;;;;1.37;1.37;;;17.60;99.90;;;;;;4968333;28;20470;-67
2023/06/23 07:15:31;;;;;;;2.77;2.10;;;17.70;99.90;;;;;;4968366;28;20467;-67
2023/06/23 07:17:59;;;;;;;2.13;2.13;;;17.70;99.90;;;;;;4973715;28;20519;-67
2023/06/23 07:20:26;;;;;;;2.00;2.00;;;17.80;99.90;;;;;;4973312;28;20518;-67
2023/06/23 07:22:53;;;;;;;2.50;2.40;;;17.90;99.90;;;;;;4970520;28;20467;-68
2023/06/23 07:25:19;;;;;;;2.53;2.20;;;18.00;99.90;;;;;;4973367;28;20499;-68
2023/06/23 07:27:48;;;;;;;4.37;2.07;;;18.10;99.90;;;;;;4973970;28;20566;-68
2023/06/23 07:30:15;;;;;;;2.67;2.47;;;18.10;99.90;;;;;;4970742;28;20495;-67
2023/06/23 07:32:44;;;;;;;2.97;2.07;;;18.20;99.90;;;;;;4971381;28;20471;-68
2023/06/23 07:35:12;;;;;;;1.20;1.20;;;18.30;99.90;;;;;;4969934;28;20953;-68
2023/06/23 07:37:39;;;;;;;4.30;2.53;;;18.30;99.90;;;;;;4968838;28;20497;-68
2023/06/23 07:40:07;;;;;;;2.13;2.03;;;18.40;99.90;;;;;;4972269;28;20491;-67
2023/06/23 07:42:33;;;;;;;1.70;1.60;;;18.40;99.90;;;;;;4973707;28;20464;-67
2023/06/23 07:45:00;;;;;;;5.60;3.83;;;18.50;99.90;;;;;;4971523;28;20467;-67
2023/06/23 07:47:27;;;;;;;1.80;1.70;;;18.50;99.90;;;;;;4974049;28;20456;-67
2023/06/23 07:49:54;;;;;;;1.70;1.60;;;18.50;99.90;;;;;;4972186;28;20506;-67
2023/06/23 07:52:22;;;;;;;2.93;1.50;;;18.50;99.90;;;;;;4971370;28;21175;-67
2023/06/23 07:54:48;;;;;;;2.07;1.97;;;18.50;99.90;;;;;;4973297;28;20463;-66
2023/06/23 07:57:15;;;;;;;1.87;1.77;;;18.50;99.90;;;;;;4970218;28;20482;-66
2023/06/23 07:59:42;;;;;;;2.67;1.87;;;18.50;99.90;;;;;;4971651;28;20488;-66
2023/06/23 08:02:09;;;;;;;3.17;2.03;;;18.60;99.90;;;;;;4973194;28;20463;-66
2023/06/23 08:04:35;;;;;;;1.20;1.20;;;18.60;99.90;;;;;;4973088;28;20471;-68
2023/06/23 08:07:02;;;;;;;1.23;1.23;;;18.60;99.90;;;;;;4973411;28;20460;-66
2023/06/23 08:09:30;;;;;;;1.90;1.80;;;18.60;99.90;;;;;;4973852;28;20487;-66
2023/06/23 08:11:57;;;;;;;1.80;1.80;;;18.60;99.90;;;;;;4968489;28;20847;-67
2023/06/23 08:14:23;;;;;;;2.47;1.40;;;18.60;99.90;;;;;;4970720;28;20476;-66
2023/06/23 08:16:50;;;;;;;1.40;1.40;;;18.50;99.90;;;;;;4968519;28;20476;-66
2023/06/23 08:19:21;;;;;;;1.87;1.87;;;18.60;99.90;;;;;;4967396;28;20481;-67
2023/06/23 08:21:48;;;;;;;2.57;1.77;;;18.60;99.90;;;;;;4962700;28;20499;-66
2023/06/23 08:24:14;;;;;;;2.17;2.07;;;18.60;99.90;;;;;;4973236;28;20464;-66
2023/06/23 08:26:43;;;;;;;2.03;2.00;;;18.60;99.90;;;;;;4970285;28;20478;-67
2023/06/23 08:29:10;;;;;;;1.73;1.70;;;18.60;99.90;;;;;;4969949;28;20495;-67
2023/06/23 08:31:37;;;;;;;1.60;1.60;;;18.70;99.90;;;;;;4972561;28;20471;-66
2023/06/23 08:34:03;;;;;;;1.23;1.23;;;18.70;99.90;;;;;;4972430;28;20562;-66
2023/06/23 08:36:30;;;;;;;1.60;1.50;;;18.70;99.90;;;;;;4967330;28;20495;-66
2023/06/23 08:38:57;;;;;;;1.33;1.33;;;18.70;99.90;;;;;;4970782;28;20487;-66
2023/06/23 08:41:26;;;;;;;3.60;3.30;;;18.70;99.90;;;;;;4972820;28;20471;-68
2023/06/23 08:43:54;;;;;;;3.07;1.97;;;18.70;99.90;;;;;;4972321;28;20468;-66
2023/06/23 08:46:26;;;;;;;2.10;2.00;;;18.70;99.90;;;;;;4969980;28;20807;-66
2023/06/23 08:48:56;;;;;;;2.67;2.53;;;18.70;99.90;;;;;;4973854;28;20468;-67
2023/06/23 08:51:23;;;;;;;2.23;2.13;;;18.60;99.90;;;;;;4971990;28;20470;-67
2023/06/23 08:53:51;;;;;;;1.60;1.50;;;18.60;99.90;;;;;;4970759;28;20641;-66
2023/06/23 08:56:18;;;;;;;2.40;2.30;;;18.60;99.90;;;;;;4971551;28;20471;-66
2023/06/23 08:58:45;;;;;;;2.00;1.90;;;18.60;99.90;;;;;;4969469;28;20494;-66
2023/06/23 09:01:13;;;;;;;2.27;2.27;;;18.70;99.90;;;;;;4969074;28;20481;-67
2023/06/23 09:03:40;;;;;;;2.00;1.90;;;18.70;99.90;;;;;;4969610;28;20861;-67
2023/06/23 09:06:06;;;;;;;1.70;1.60;;;18.70;99.90;;;;;;4965775;28;20945;-67
2023/06/23 09:08:35;;;;;;;3.23;2.60;;;18.70;99.90;;;;;;4970110;28;20982;-67
2023/06/23 09:11:01;;;;;;;3.13;2.90;;;18.70;99.90;;;;;;4965241;28;20519;-66
2023/06/23 09:13:30;;;;;;;3.50;3.20;;;18.70;99.90;;;;;;4965591;28;20476;-67
2023/06/23 09:15:57;;;;;;;3.33;3.13;;;18.70;99.90;;;;;;4968911;28;20475;-67
2023/06/23 09:18:25;;;;;;;3.00;2.90;;;18.70;99.90;;;;;;4970867;28;20564;-67
2023/06/23 09:20:53;;;;;;;5.23;3.87;;;18.70;99.90;;;;;;4970221;28;20495;-67
2023/06/23 09:23:21;;;;;;;3.80;2.53;;;18.70;99.90;;;;;;4969384;28;20531;-66
2023/06/23 09:25:49;;;;;;;4.73;4.33;;;18.70;99.90;;;;;;4966239;28;20505;-66
2023/06/23 09:28:24;;;;;;;2.80;2.60;;;18.70;99.90;;;;;;4966497;28;20479;-66
2023/06/23 09:30:51;;;;;;;5.70;4.07;;;18.70;99.90;;;;;;4967019;28;20486;-66
2023/06/23 09:33:19;;;;;;;3.70;3.40;;;18.70;99.90;;;;;;4965632;28;20471;-66
2023/06/23 09:35:50;;;;;;;3.23;3.13;;;18.70;99.90;;;;;;4960251;28;20464;-66
2023/06/23 09:38:22;;;;;;;5.23;3.40;;;18.80;99.90;;;;;;4963386;28;20471;-66
2023/06/23 09:40:49;;;;;;;4.30;3.97;;;18.80;99.90;;;;;;4958990;28;20491;-66
2023/06/23 09:43:16;;;;;;;4.10;3.80;;;18.80;99.90;;;;;;4959772;28;20463;-66
2023/06/23 09:45:45;;;;;;;3.93;3.50;;;18.90;99.90;;;;;;4970682;28;20787;-67
2023/06/23 09:48:17;;;;;;;5.77;4.20;;;18.90;99.90;;;;;;4970406;28;20469;-66
2023/06/23 09:50:44;;;;;;;3.43;3.33;;;18.80;99.90;;;;;;4969152;28;20518;-67
2023/06/23 09:53:20;;;;;;;4.70;4.33;;;18.90;99.90;;;;;;4967478;28;20957;-67
2023/06/23 09:55:47;;;;;;;4.53;4.23;;;18.90;99.90;;;;;;4964644;28;21016;-67
2023/06/23 09:58:14;;;;;;;4.40;3.50;;;19.00;99.90;;;;;;4968881;28;20468;-67
2023/06/23 10:00:41;;;;;;;4.73;4.30;;;19.00;99.90;;;;;;4971484;28;20480;-67
2023/06/23 10:03:08;;;;;;;5.97;4.40;;;19.10;99.90;;;;;;4968162;28;20483;-67
2023/06/23 10:05:36;;;;;;;4.80;4.40;;;19.20;99.90;;;;;;4968844;28;20464;-66
2023/06/23 10:08:07;;;;;;;4.03;3.73;;;19.20;99.90;;;;;;4967826;28;20467;-67
2023/06/23 10:10:43;;;;;;;3.50;3.30;;;19.30;99.90;;;;;;4963839;28;20591;-67
2023/06/23 10:13:10;;;;;;;2.80;2.70;;;19.30;99.90;;;;;;4965643;28;20475;-67
2023/06/23 10:15:39;;;;;;;3.60;3.30;;;19.30;99.90;;;;;;4967234;28;20492;-67
2023/06/23 10:18:06;;;;;;;3.87;3.57;;;19.30;99.90;;;;;;4960352;28;20475;-67
2023/06/23 10:20:33;;;;;;;4.63;4.30;;;19.30;99.90;;;;;;4959272;28;21566;-67
2023/06/23 10:23:00;;;;;;;5.93;5.63;;;19.40;99.90;;;;;;4967136;28;20471;-67
2023/06/23 10:25:27;;;;;;;4.60;4.20;;;19.50;99.90;;;;;;4965451;28;20476;-66
2023/06/23 10:27:58;;;;;;;4.23;3.93;;;19.50;99.90;;;;;;4965099;28;21228;-67
2023/06/23 10:30:27;;;;;;;4.13;3.80;;;19.60;99.90;;;;;;4970495;28;20515;-71
2023/06/23 10:32:56;;;;;;;3.37;3.17;;;19.60;99.90;;;;;;4966117;28;20467;-67
2023/06/23 10:35:24;;;;;;;4.33;4.13;;;19.60;99.90;;;;;;4970248;28;20476;-67
2023/06/23 10:38:00;;;;;;;6.37;4.20;;;19.70;99.90;;;;;;4970780;28;20456;-67
2023/06/23 10:40:27;;;;;;;4.90;3.90;;;19.80;99.90;;;;;;4955567;28;20510;-67
2023/06/23 10:42:59;;;;;;;4.00;3.80;;;19.80;99.90;;;;;;4975311;28;20890;-66
2023/06/23 10:45:26;;;;;;;3.90;3.60;;;19.80;99.90;;;;;;5003951;23;20569;-69
2023/06/23 10:47:53;;;;;;;5.50;4.70;;;19.90;99.90;;;;;;4969989;28;20472;-71
2023/06/23 10:50:20;;;;;;;6.23;4.70;;;19.90;99.90;;;;;;4974035;28;20594;-70
2023/06/23 10:52:47;;;;;;;4.23;4.03;;;20.00;99.90;;;;;;4969799;28;20478;-71
2023/06/23 10:55:35;;;;;;;4.37;4.07;;;20.10;99.90;;;;;;4963397;28;20488;-71
2023/06/23 10:58:14;;;;;;;6.30;5.10;;;20.20;99.90;;;;;;4955142;29;20468;-71
2023/06/23 11:00:46;;;;;;;5.73;4.00;;;20.20;99.90;;;;;;4951129;29;20460;-71
2023/06/23 11:03:27;;;;;;;5.80;5.30;;;20.40;99.90;;;;;;4951531;29;20500;-70
2023/06/23 11:05:55;;;;;;;5.27;4.87;;;20.40;99.90;;;;;;4948500;28;20497;-70
2023/06/23 11:08:29;;;;;;;4.73;4.17;;;20.30;99.90;;;;;;4954562;29;20627;-70
2023/06/23 11:10:59;;;;;;;5.77;4.30;;;20.30;99.90;;;;;;4952674;28;21046;-71
2023/06/23 11:13:35;;;;;;;10.30;4.57;;;20.30;99.90;;;;;;4954712;29;21033;-70
2023/06/23 11:16:03;;;;;;;6.67;4.30;;;20.30;99.90;;;;;;4953165;28;21173;-70
2023/06/23 11:18:30;;;;;;;4.63;4.33;;;20.30;99.90;;;;;;4942303;29;20478;-71
2023/06/23 11:21:02;;;;;;;5.23;4.83;;;20.40;99.90;;;;;;4953357;28;20476;-70
2023/06/23 11:23:30;;;;;;;7.20;5.33;;;20.50;99.90;;;;;;4950128;28;20477;-70
2023/06/23 11:25:57;;;;;;;4.87;4.43;;;20.50;99.90;;;;;;4953512;28;20842;-70
2023/06/23 11:28:29;;;;;;;6.10;4.77;;;20.40;99.90;;;;;;4954543;29;20487;-69
2023/06/23 11:31:04;;;;;;;5.33;4.93;;;20.40;99.90;;;;;;4955047;28;20472;-70
2023/06/23 11:33:32;;;;;;;4.70;4.40;;;20.30;99.90;;;;;;4952205;29;20547;-70
2023/06/23 11:36:04;;;;;;;4.73;4.43;;;20.30;99.90;;;;;;4953817;29;20570;-70
2023/06/23 11:38:32;;;;;;;4.53;4.27;;;20.20;99.90;;;;;;4949583;28;20845;-71
2023/06/23 11:40:59;;;;;;;4.47;4.07;;;20.30;99.90;;;;;;4947164;28;20480;-72
2023/06/23 11:43:26;;;;;;;3.70;3.50;;;20.30;99.90;;;;;;4945828;28;20822;-71
2023/06/23 11:45:56;;;;;;;4.23;3.93;;;20.30;99.90;;;;;;4954658;29;20500;-74
2023/06/23 11:48:27;;;;;;;4.87;4.47;;;20.40;99.90;;;;;;4961601;28;20529;-71
2023/06/23 11:50:54;;;;;;;4.67;4.30;;;20.50;99.90;;;;;;4943533;28;20577;-71
2023/06/23 11:53:21;;;;;;;5.17;4.13;;;20.50;99.90;;;;;;4951859;29;20575;-71
2023/06/23 11:55:49;;;;;;;3.80;3.60;;;20.50;99.90;;;;;;4938297;28;20486;-72
2023/06/23 11:58:16;;;;;;;4.83;4.00;;;20.60;99.90;;;;;;4959290;28;20473;-71
2023/06/23 12:00:43;;;;;;;4.60;4.27;;;20.60;99.90;;;;;;4953719;29;20493;-72
2023/06/23 12:03:13;;;;;;;5.40;4.80;;;20.70;99.90;;;;;;4954689;29;20483;-72
2023/06/23 12:05:42;;;;;;;4.47;3.87;;;20.70;99.90;;;;;;4950026;28;20498;-72
2023/06/23 12:08:09;;;;;;;4.37;4.07;;;20.70;99.90;;;;;;4944040;29;20588;-72
2023/06/23 12:10:37;;;;;;;3.77;3.47;;;20.70;99.90;;;;;;4952808;29;20534;-72
2023/06/23 12:13:06;;;;;;;3.87;3.67;;;20.70;99.90;;;;;;4950697;29;20469;-72
2023/06/23 12:15:36;;;;;;;4.80;4.40;;;20.70;99.90;;;;;;4953748;28;20492;-71
2023/06/23 12:18:03;;;;;;;5.47;5.07;;;20.70;99.90;;;;;;4947733;29;20530;-71
2023/06/23 12:20:34;;;;;;;4.17;3.90;;;20.70;99.90;;;;;;4952188;29;20895;-72
2023/06/23 12:23:03;;;;;;;4.40;4.13;;;20.80;99.90;;;;;;4948539;29;20460;-72
2023/06/23 12:25:32;;;;;;;4.10;3.73;;;20.70;99.90;;;;;;4953280;28;20477;-72
2023/06/23 12:27:59;;;;;;;3.50;3.30;;;20.70;99.90;;;;;;4953528;29;20494;-72
2023/06/23 12:30:26;;;;;;;3.63;3.43;;;20.70;99.90;;;;;;4953837;29;20496;-71
2023/06/23 12:32:55;;;;;;;3.50;3.27;;;20.60;99.90;;;;;;4949981;28;20473;-70
2023/06/23 12:35:22;;;;;;;3.90;3.40;;;20.60;99.90;;;;;;4947393;29;20545;-70
2023/06/23 12:37:50;;;;;;;3.33;3.10;;;20.50;99.90;;;;;;4943175;29;20834;-70
2023/06/23 12:40:34;;;;;;;4.80;4.50;;;20.50;99.90;;;;;;4951839;28;20473;-70
2023/06/23 12:43:01;;;;;;;3.67;3.47;;;20.50;99.90;;;;;;4948898;29;20484;-71
2023/06/23 12:45:28;;;;;;;3.50;3.20;;;20.50;99.90;;;;;;4942592;28;20492;-71
2023/06/23 12:47:55;;;;;;;3.37;3.27;;;20.60;99.90;;;;;;4951967;28;20476;-70
2023/06/23 12:50:28;;;;;;;3.10;2.90;;;20.50;99.90;;;;;;4951748;29;20561;-70
2023/06/23 12:52:57;;;;;;;3.20;3.10;;;20.50;99.90;;;;;;4949594;29;20468;-71
2023/06/23 12:55:23;;;;;;;3.80;3.57;;;20.60;99.90;;;;;;4949806;28;20576;-71
2023/06/23 12:57:50;;;;;;;4.17;3.87;;;20.70;99.90;;;;;;4951347;29;20481;-71
2023/06/23 13:00:18;;;;;;;3.97;3.67;;;20.80;99.90;;;;;;4953033;29;20555;-71
2023/06/23 13:02:46;;;;;;;3.03;2.93;;;20.90;99.90;;;;;;4950482;28;22258;-71
2023/06/23 13:05:13;;;;;;;3.67;3.47;;;20.90;99.90;;;;;;4952209;29;21032;-69
2023/06/23 13:07:40;;;;;;;3.93;3.70;;;21.00;99.90;;;;;;4951453;28;20481;-70
2023/06/23 13:10:09;;;;;;;3.97;3.67;;;21.00;99.90;;;;;;4944212;28;20559;-70
2023/06/23 13:12:36;;;;;;;4.73;4.33;;;21.10;99.90;;;;;;4952964;28;20491;-70
2023/06/23 13:15:03;;;;;;;4.10;3.90;;;21.10;99.90;;;;;;4952985;29;20487;-70
2023/06/23 13:17:30;;;;;;;4.43;4.20;;;21.20;99.90;;;;;;4953935;29;20538;-71
2023/06/23 13:19:57;;;;;;;4.40;4.10;;;21.20;99.90;;;;;;4951310;29;20557;-71
2023/06/23 13:22:24;;;;;;;4.37;4.00;;;21.30;99.90;;;;;;4938856;29;20963;-70
2023/06/23 13:24:50;;;;;;;4.23;3.83;;;21.40;99.90;;;;;;4943696;28;20496;-70
2023/06/23 13:27:18;;;;;;;4.80;4.50;;;21.60;99.90;;;;;;4948192;28;20476;-70
2023/06/23 13:29:46;;;;;;;3.93;3.73;;;21.80;99.90;;;;;;4950798;28;20489;-71
2023/06/23 13:32:13;;;;;;;5.40;4.90;;;21.90;99.90;;;;;;4952817;28;20831;-71
2023/06/23 13:34:40;;;;;;;3.70;3.50;;;21.90;99.90;;;;;;4954229;28;20483;-71
2023/06/23 13:37:07;;;;;;;4.13;3.93;;;22.00;99.90;;;;;;4953673;29;20464;-70
2023/06/23 13:39:35;;;;;;;4.60;4.30;;;22.00;99.90;;;;;;4946031;28;20563;-66
2023/06/23 13:42:01;;;;;;;4.90;4.60;;;22.10;99.90;;;;;;4951636;28;20451;-67
2023/06/23 13:44:30;;;;;;;5.17;4.77;;;22.10;99.90;;;;;;4954555;29;20494;-68
2023/06/23 13:46:56;;;;;;;3.67;3.47;;;22.00;99.90;;;;;;4950571;29;20476;-69
2023/06/23 13:49:25;;;;;;;3.57;3.40;;;22.00;99.90;;;;;;4952715;28;20491;-67
2023/06/23 13:51:52;;;;;;;4.47;4.17;;;22.00;99.90;;;;;;4952196;29;20495;-68
2023/06/23 13:54:19;;;;;;;4.73;4.43;;;22.10;99.90;;;;;;4948908;29;20847;-68
2023/06/23 13:56:46;;;;;;;4.37;3.97;;;22.20;99.90;;;;;;4952393;29;20460;-69
2023/06/23 13:59:13;;;;;;;4.77;4.37;;;22.30;99.90;;;;;;4952137;29;20883;-69
2023/06/23 14:01:41;;;;;;;4.57;4.17;;;22.40;99.90;;;;;;4951853;29;20464;-69
2023/06/23 14:04:08;;;;;;;3.60;3.40;;;22.50;99.90;;;;;;4952314;28;20472;-67
2023/06/23 14:06:35;;;;;;;3.97;3.67;;;22.50;99.90;;;;;;4951559;29;20566;-68
2023/06/23 14:09:03;;;;;;;4.40;4.00;;;22.50;99.90;;;;;;4953291;29;20468;-68
2023/06/23 14:11:30;;;;;;;3.87;3.63;;;22.50;99.90;;;;;;4956407;29;20568;-68
2023/06/23 14:13:56;;;;;;;4.80;4.50;;;22.60;99.90;;;;;;4951104;28;20561;-68
2023/06/23 14:16:23;;;;;;;3.23;3.03;;;22.70;99.90;;;;;;4951197;28;20571;-67
2023/06/23 14:18:51;;;;;;;5.23;4.83;;;22.70;99.90;;;;;;4964376;29;20458;-67
2023/06/23 14:21:18;;;;;;;4.30;4.00;;;22.70;99.90;;;;;;4959618;29;20562;-67
2023/06/23 14:23:44;;;;;;;5.03;4.63;;;22.80;99.90;;;;;;4959105;28;20479;-67
2023/06/23 14:26:11;;;;;;;3.60;3.50;;;22.80;99.90;;;;;;4963481;29;20505;-67
2023/06/23 14:28:38;;;;;;;4.30;4.00;;;22.80;99.90;;;;;;4963526;29;20834;-68
2023/06/23 14:31:07;;;;;;;5.27;4.87;;;22.90;99.90;;;;;;4966609;28;20480;-67
2023/06/23 14:33:34;;;;;;;4.10;3.80;;;22.90;99.90;;;;;;4967768;28;20472;-67
2023/06/23 14:36:02;;;;;;;4.67;4.27;;;22.80;99.90;;;;;;4963025;28;20506;-67
2023/06/23 14:38:29;;;;;;;4.00;3.70;;;22.80;99.90;;;;;;4958248;29;20465;-67
2023/06/23 14:40:57;;;;;;;3.23;3.03;;;22.90;99.90;;;;;;4963425;29;20473;-67
2023/06/23 14:43:24;;;;;;;3.87;3.67;;;23.00;99.90;;;;;;4968050;28;20479;-68
2023/06/23 14:45:52;;;;;;;3.70;3.60;;;23.00;99.90;;;;;;4955452;29;20573;-67
2023/06/23 14:48:20;;;;;;;3.87;3.47;;;23.10;99.90;;;;;;4964025;29;20497;-68
2023/06/23 14:50:47;;;;;;;3.87;3.57;;;23.20;99.90;;;;;;4955818;29;20489;-67
2023/06/23 14:53:16;;;;;;;3.27;3.07;;;23.20;99.90;;;;;;4964479;29;20501;-68
2023/06/23 14:55:42;;;;;;;3.57;3.03;;;23.30;99.90;;;;;;4962362;29;20920;-68
2023/06/23 14:58:09;;;;;;;3.17;2.83;;;23.40;99.90;;;;;;4963483;29;20479;-68
2023/06/23 15:00:36;;;;;;;3.70;3.50;;;23.40;99.90;;;;;;4962730;28;20479;-67
2023/06/23 15:03:03;;;;;;;3.47;3.30;;;23.40;99.90;;;;;;4958498;28;20472;-68
2023/06/23 15:05:29;;;;;;;4.03;3.00;;;23.50;99.90;;;;;;4965044;29;20489;-68
2023/06/23 15:07:57;;;;;;;4.50;4.20;;;23.70;99.90;;;;;;4961754;29;20476;-68
2023/06/23 15:10:25;;;;;;;3.77;3.47;;;23.80;99.90;;;;;;4964171;29;20462;-69
2023/06/23 15:12:51;;;;;;;3.53;3.33;;;23.70;99.90;;;;;;4961976;29;20503;-67
2023/06/23 15:15:18;;;;;;;5.80;3.20;;;23.70;99.90;;;;;;4961781;28;20855;-68
2023/06/23 15:17:45;;;;;;;2.90;2.70;;;23.60;99.90;;;;;;4956658;29;20464;-68
2023/06/23 15:20:13;;;;;;;3.47;3.17;;;23.60;99.90;;;;;;4959190;29;20467;-68
2023/06/23 15:22:40;;;;;;;2.20;2.10;;;23.70;99.90;;;;;;4956537;29;20468;-68
2023/06/23 15:25:08;;;;;;;2.50;2.40;;;23.90;99.90;;;;;;4961177;28;20517;-68
2023/06/23 15:27:36;;;;;;;2.77;2.67;;;24.10;99.90;;;;;;4962326;29;20959;-69
2023/06/23 15:30:03;;;;;;;2.37;2.27;;;24.20;99.90;;;;;;4962022;29;20476;-68
2023/06/23 15:32:29;;;;;;;2.37;2.27;;;24.10;99.90;;;;;;4955911;29;20486;-69
2023/06/23 15:34:56;;;;;;;2.57;2.50;;;24.10;99.90;;;;;;4956735;29;20585;-69
2023/06/23 15:37:23;;;;;;;2.27;2.17;;;24.00;99.90;;;;;;4949570;29;20472;-68
2023/06/23 15:39:50;;;;;;;1.93;1.93;;;24.00;99.90;;;;;;4953392;29;20846;-67
2023/06/23 15:42:16;;;;;;;2.37;1.70;;;23.90;99.90;;;;;;4955609;28;20466;-69
2023/06/23 15:44:45;;;;;;;3.53;2.23;;;24.00;99.90;;;;;;4953937;29;20505;-70
2023/06/23 15:47:12;;;;;;;2.40;2.30;;;24.10;99.90;;;;;;4954410;28;20476;-70
2023/06/23 15:49:39;;;;;;;1.60;1.60;;;24.20;99.90;;;;;;4954947;29;20559;-70
2023/06/23 15:52:06;;;;;;;2.37;2.27;;;24.30;99.90;;;;;;4953698;29;20496;-70
2023/06/23 15:54:33;;;;;;;2.13;2.13;;;24.30;99.90;;;;;;4952114;28;21007;-70
2023/06/23 15:57:00;;;;;;;1.93;1.93;;;24.50;99.90;;;;;;4955107;29;20475;-70
2023/06/23 15:59:27;;;;;;;1.70;1.60;;;24.50;99.90;;;;;;4955185;29;20480;-70
2023/06/23 16:01:55;;;;;;;1.83;1.73;;;24.60;99.90;;;;;;4951831;29;20981;-68
2023/06/23 16:04:21;;;;;;;1.80;1.43;;;24.70;99.90;;;;;;4950483;28;20478;-68
2023/06/23 16:06:48;;;;;;;2.13;2.13;;;24.80;99.90;;;;;;4953550;29;20546;-69
2023/06/23 16:09:15;;;;;;;1.33;1.33;;;24.70;99.90;;;;;;4951231;29;20475;-69
2023/06/23 16:11:42;;;;;;;1.73;1.67;;;24.70;99.90;;;;;;4950467;29;20492;-70
2023/06/23 16:14:09;;;;;;;1.60;1.60;;;24.50;99.90;;;;;;4949886;29;20500;-70
2023/06/23 16:16:36;;;;;;;1.97;1.97;;;24.20;99.90;;;;;;4955562;29;20461;-71
2023/06/23 16:19:04;;;;;;;1.93;1.90;;;23.90;99.90;;;;;;4954000;29;20478;-70
2023/06/23 16:21:31;;;;;;;1.97;1.90;;;23.80;99.90;;;;;;4949148;28;20469;-70
2023/06/23 16:23:57;;;;;;;3.40;2.17;;;23.70;99.90;;;;;;4951117;29;20473;-71
2023/06/23 16:26:24;;;;;;;1.90;1.77;;;23.70;99.90;;;;;;4944353;29;20503;-71
2023/06/23 16:28:51;;;;;;;1.53;1.53;;;23.70;99.90;;;;;;4946980;29;20478;-71
2023/06/23 16:31:18;;;;;;;1.50;1.40;;;23.90;99.90;;;;;;4954536;29;20987;-71
2023/06/23 16:33:45;;;;;;;1.57;1.57;;;23.90;99.90;;;;;;4954008;28;20575;-71
2023/06/23 16:36:13;;;;;;;1.53;1.53;;;23.90;99.90;;;;;;4951910;29;20556;-71
2023/06/23 16:38:40;;;;;;;1.70;1.70;;;23.90;99.90;;;;;;4952366;28;20487;-70
2023/06/23 16:41:07;;;;;;;1.30;1.30;;;23.90;99.90;;;;;;4957643;29;20840;-71
2023/06/23 16:43:33;;;;;;;1.50;1.50;;;23.90;99.90;;;;;;4954697;29;20490;-71
2023/06/23 16:46:00;;;;;;;1.43;1.33;;;23.90;99.90;;;;;;4949675;28;20510;-70
2023/06/23 16:50:55;;;;;;;2.00;1.93;;;24.00;99.90;;;;;;4970156;28;20479;-67
2023/06/23 16:53:23;;;;;;;1.20;1.20;;;24.10;99.90;;;;;;4982961;28;20491;-67
2023/06/23 16:55:49;;;;;;;1.97;1.97;;;24.10;99.90;;;;;;4972482;28;20491;-68